createdAt,value
2024-05-09T00:00:59.192Z,102881.69
2024-05-09T00:03:01.108Z,102879.97
2024-05-09T00:05:03.381Z,102874.75
2024-05-09T00:07:07.892Z,102878.25
2024-05-09T00:09:09.647Z,102876.50
2024-05-09T00:11:14.434Z,102873.88
2024-05-09T00:13:16.286Z,102873.00
2024-05-09T00:15:18.027Z,102874.75
2024-05-09T00:17:19.860Z,102878.25
2024-05-09T00:19:21.755Z,102873.91
2024-05-09T00:21:23.567Z,102877.34
2024-05-09T00:23:29.137Z,102872.16
2024-05-09T00:25:31.019Z,102874.78
2024-05-09T00:27:32.780Z,102879.13
2024-05-09T00:29:34.552Z,102877.38
2024-05-09T00:31:36.306Z,102877.41
2024-05-09T00:33:38.198Z,102872.19
2024-05-09T00:35:41.411Z,102870.44
2024-05-09T00:37:43.213Z,102872.19
2024-05-09T00:39:47.576Z,102873.94
2024-05-09T00:41:49.379Z,102865.22
2024-05-09T00:43:51.177Z,102873.06
2024-05-09T00:45:54.937Z,102860.91
2024-05-09T00:47:58.046Z,102867.00
2024-05-09T00:50:00.303Z,102872.22
2024-05-09T00:52:02.850Z,102862.66
2024-05-09T00:54:05.540Z,102867.03
2024-05-09T00:56:11.895Z,102868.78
2024-05-09T00:58:18.282Z,102868.78
2024-05-09T01:00:27.264Z,102868.78
2024-05-09T01:02:37.650Z,102868.81
2024-05-09T01:04:39.483Z,102867.06
2024-05-09T01:06:41.409Z,102867.94
2024-05-09T01:08:43.304Z,102860.97
2024-05-09T01:10:47.072Z,102855.75
2024-05-09T01:12:52.783Z,102853.16
2024-05-09T01:14:54.551Z,102855.75
2024-05-09T01:16:56.597Z,102850.56
2024-05-09T01:18:59.276Z,102858.41
2024-05-09T01:21:01.199Z,102854.03
2024-05-09T01:23:07.734Z,102847.97
2024-05-09T01:25:09.547Z,102848.88
2024-05-09T01:27:11.288Z,102846.22
2024-05-09T01:29:13.202Z,102845.38
2024-05-09T01:31:16.018Z,102851.47
2024-05-09T01:33:17.957Z,102848.91
2024-05-09T01:35:23.706Z,102841.94
2024-05-09T01:37:25.643Z,102844.56
2024-05-09T01:39:29.977Z,102839.34
2024-05-09T01:41:31.924Z,102846.31
2024-05-09T01:43:33.780Z,102845.44
2024-05-09T01:45:35.497Z,102851.53
2024-05-09T01:47:37.442Z,102848.91
2024-05-09T01:49:40.088Z,102849.78
2024-05-09T01:51:41.849Z,102841.09
2024-05-09T01:53:43.727Z,102845.44
2024-05-09T01:55:48.318Z,102843.69
2024-05-09T01:57:50.625Z,102848.03
2024-05-09T01:59:52.357Z,102842.84
2024-05-09T02:01:56.992Z,102845.44
2024-05-09T02:03:59.869Z,102843.72
2024-05-09T02:06:01.969Z,102838.50
2024-05-09T02:08:04.426Z,102836.75
2024-05-09T02:10:10.972Z,102843.69
2024-05-09T02:12:21.009Z,102843.69
2024-05-09T02:14:22.978Z,102843.69
2024-05-09T02:16:24.782Z,102846.31
2024-05-09T02:18:26.714Z,102838.50
2024-05-09T02:20:35.191Z,102832.44
2024-05-09T02:22:38.346Z,102841.94
2024-05-09T02:24:40.103Z,102835.88
2024-05-09T02:26:41.841Z,102830.69
2024-05-09T02:28:46.328Z,102833.28
2024-05-09T02:30:48.129Z,102830.69
2024-05-09T02:32:50.144Z,102837.63
2024-05-09T02:34:52.127Z,102843.69
2024-05-09T02:36:56.215Z,102835.88
2024-05-09T02:38:57.991Z,102844.56
2024-05-09T02:40:59.866Z,102841.97
2024-05-09T02:43:01.632Z,102831.56
2024-05-09T02:45:06.890Z,102829.78
2024-05-09T02:47:08.979Z,102832.41
2024-05-09T02:49:11.131Z,102835.88
2024-05-09T02:51:13.186Z,102838.47
2024-05-09T02:53:15.154Z,102833.28
2024-05-09T02:55:16.906Z,102835.00
2024-05-09T02:57:18.666Z,102826.31
2024-05-09T02:59:20.475Z,102827.19
2024-05-09T03:01:24.901Z,102839.34
2024-05-09T03:03:27.130Z,102835.88
2024-05-09T03:05:29.293Z,102839.34
2024-05-09T03:07:31.069Z,102840.22
2024-05-09T03:09:32.803Z,102838.47
2024-05-09T03:11:34.746Z,102836.75
2024-05-09T03:13:41.455Z,102836.72
2024-05-09T03:15:43.589Z,102833.25
2024-05-09T03:17:48.372Z,102829.78
2024-05-09T03:19:50.364Z,102828.06
2024-05-09T03:21:52.146Z,102831.53
2024-05-09T03:23:54.013Z,102833.25
2024-05-09T03:25:56.003Z,102828.91
2024-05-09T03:27:57.765Z,102823.69
2024-05-09T03:29:59.562Z,102818.50
2024-05-09T03:32:01.402Z,102819.38
2024-05-09T03:34:06.100Z,102818.50
2024-05-09T03:36:11.125Z,102821.09
2024-05-09T03:38:13.430Z,102815.88
2024-05-09T03:40:20.875Z,102827.19
2024-05-09T03:42:25.762Z,102819.38
2024-05-09T03:44:27.612Z,102818.50
2024-05-09T03:46:29.432Z,102814.16
2024-05-09T03:48:34.917Z,102825.44
2024-05-09T03:50:39.462Z,102822.84
2024-05-09T03:52:41.311Z,102815.88
2024-05-09T03:54:45.652Z,102815.88
2024-05-09T03:56:47.529Z,102817.63
2024-05-09T03:58:49.602Z,102815.88
2024-05-09T04:00:51.453Z,102808.94
2024-05-09T04:02:53.537Z,102810.66
2024-05-09T04:04:55.374Z,102811.56
2024-05-09T04:07:00.865Z,102811.53
2024-05-09T04:09:02.658Z,102816.78
2024-05-09T04:11:04.861Z,102815.88
2024-05-09T04:13:06.752Z,102814.16
2024-05-09T04:15:12.125Z,102827.19
2024-05-09T04:17:15.151Z,102821.09
2024-05-09T04:19:17.019Z,102815.88
2024-05-09T04:21:18.816Z,102816.75
2024-05-09T04:23:23.388Z,102819.34
2024-05-09T04:25:25.215Z,102826.28
2024-05-09T04:27:27.019Z,102824.53
2024-05-09T04:29:28.965Z,102824.53
2024-05-09T04:31:30.740Z,102826.28
2024-05-09T04:33:32.917Z,102823.69
2024-05-09T04:35:35.336Z,102825.41
2024-05-09T04:37:37.606Z,102831.50
2024-05-09T04:39:42.007Z,102841.94
2024-05-09T04:41:43.843Z,102830.63
2024-05-09T04:43:45.875Z,102834.09
2024-05-09T04:45:47.860Z,102830.63
2024-05-09T04:47:49.904Z,102831.50
2024-05-09T04:49:51.865Z,102838.47
2024-05-09T04:51:53.639Z,102834.09
2024-05-09T04:53:55.373Z,102830.59
2024-05-09T04:55:59.971Z,102838.41
2024-05-09T04:58:01.974Z,102841.00
2024-05-09T05:00:09.335Z,102824.53
2024-05-09T05:02:19.122Z,102831.47
2024-05-09T05:04:20.980Z,102838.44
2024-05-09T05:06:22.795Z,102836.72
2024-05-09T05:08:24.607Z,102832.34
2024-05-09T05:10:33.757Z,102837.59
2024-05-09T05:12:59.337Z,102838.47
2024-05-09T05:15:01.129Z,102841.06
2024-05-09T05:17:02.972Z,102840.19
2024-05-09T05:19:07.160Z,102841.09
2024-05-09T05:21:11.543Z,102847.19
2024-05-09T05:23:15.142Z,102841.97
2024-05-09T05:25:17.131Z,102847.19
2024-05-09T05:27:18.980Z,102845.44
2024-05-09T05:29:23.487Z,102833.28
2024-05-09T05:31:25.340Z,102851.50
2024-05-09T05:33:27.319Z,102845.47
2024-05-09T05:35:29.290Z,102841.97
2024-05-09T05:37:31.128Z,102843.69
2024-05-09T05:39:32.948Z,102842.84
2024-05-09T05:41:34.832Z,102849.81
2024-05-09T05:43:36.665Z,102850.66
2024-05-09T05:45:41.162Z,102845.44
2024-05-09T05:47:43.064Z,102847.16
2024-05-09T05:49:44.942Z,102848.06
2024-05-09T05:51:46.770Z,102846.31
2024-05-09T05:53:48.627Z,102840.22
2024-05-09T05:55:50.496Z,102850.63
2024-05-09T05:57:52.311Z,102844.53
2024-05-09T05:59:54.199Z,102848.03
2024-05-09T06:01:58.669Z,102849.75
2024-05-09T06:04:00.637Z,102848.88
2024-05-09T06:06:03.078Z,102847.97
2024-05-09T06:08:05.862Z,102850.56
2024-05-09T06:10:16.968Z,102844.44
2024-05-09T06:12:23.090Z,102847.03
2024-05-09T06:14:24.966Z,102851.34
2024-05-09T06:16:26.793Z,102853.97
2024-05-09T06:18:31.387Z,102851.31
2024-05-09T06:20:36.552Z,102845.22
2024-05-09T06:22:40.004Z,102845.19
2024-05-09T06:24:41.732Z,102847.78
2024-05-09T06:26:43.666Z,102854.72
2024-05-09T06:28:45.504Z,102852.09
2024-05-09T06:30:47.271Z,102845.94
2024-05-09T06:32:49.135Z,102841.56
2024-05-09T06:34:53.572Z,102849.34
2024-05-09T06:36:55.306Z,102839.72
2024-05-09T06:38:57.076Z,102844.84
2024-05-09T06:40:58.869Z,102851.81
2024-05-09T06:43:00.780Z,102852.72
2024-05-09T06:45:03.035Z,102855.34
2024-05-09T06:47:04.954Z,102857.94
2024-05-09T06:49:08.850Z,102861.44
2024-05-09T06:51:13.440Z,102861.41
2024-05-09T06:53:16.475Z,102860.53
2024-05-09T06:55:18.280Z,102868.38
2024-05-09T06:57:21.352Z,102866.63
2024-05-09T06:59:23.271Z,102866.66
2024-05-09T07:01:25.174Z,102862.31
2024-05-09T07:03:27.078Z,102860.59
2024-05-09T07:05:29.564Z,102864.94
2024-05-09T07:07:34.135Z,102861.44
2024-05-09T07:09:36.086Z,102865.78
2024-05-09T07:11:38.164Z,102869.19
2024-05-09T07:13:40.060Z,102870.00
2024-05-09T07:15:42.248Z,102867.34
2024-05-09T07:17:44.278Z,102866.50
2024-05-09T07:19:46.349Z,102868.19
2024-05-09T07:21:48.189Z,102875.13
2024-05-09T07:23:53.100Z,102864.56
2024-05-09T07:25:55.015Z,102869.72
2024-05-09T07:27:56.844Z,102871.41
2024-05-09T07:29:59.081Z,102871.34
2024-05-09T07:32:00.885Z,102874.00
2024-05-09T07:34:02.808Z,102874.88
2024-05-09T07:36:05.086Z,102872.22
2024-05-09T07:38:06.871Z,102873.06
2024-05-09T07:40:17.695Z,102873.09
2024-05-09T07:42:26.387Z,102865.25
2024-05-09T07:44:28.327Z,102873.06
2024-05-09T07:47:36.978Z,102876.50
2024-05-09T07:53:36.131Z,102883.28
2024-05-09T07:55:27.341Z,102878.00
2024-05-09T07:57:29.276Z,102877.09
2024-05-09T07:59:33.286Z,102876.97
2024-05-09T08:01:36.961Z,102875.09
2024-05-09T08:03:38.952Z,102878.44
2024-05-09T08:05:41.271Z,102877.47
2024-05-09T08:07:45.224Z,102879.13
2024-05-09T08:09:47.060Z,102875.56
2024-05-09T08:11:54.891Z,102873.78
2024-05-09T08:13:56.646Z,102870.25
2024-05-09T08:15:58.502Z,102877.19
2024-05-09T08:18:00.656Z,102866.56
2024-05-09T08:20:05.515Z,102868.16
2024-05-09T08:22:07.732Z,102867.16
2024-05-09T08:24:10.538Z,102859.22
2024-05-09T08:26:12.559Z,102854.72
2024-05-09T08:28:17.186Z,102863.22
2024-05-09T08:30:25.271Z,102857.88
2024-05-09T08:32:35.293Z,102855.22
2024-05-09T08:34:37.162Z,102853.38
2024-05-09T08:36:40.798Z,102844.47
2024-05-09T08:38:42.676Z,102842.50
2024-05-09T08:40:47.134Z,102842.31
2024-05-09T08:42:50.105Z,102851.72
2024-05-09T08:44:54.609Z,102854.25
2024-05-09T08:46:56.817Z,102848.03
2024-05-09T08:49:00.888Z,102847.84
2024-05-09T08:51:03.169Z,102850.28
2024-05-09T08:53:05.586Z,102848.47
2024-05-09T08:55:08.041Z,102851.91
2024-05-09T08:57:14.824Z,102848.38
2024-05-09T08:59:28.623Z,102850.06
2024-05-09T09:01:58.122Z,102843.91
2024-05-09T09:04:17.173Z,102845.50
2024-05-09T09:06:22.108Z,102837.41
2024-05-09T09:08:26.836Z,102837.09
2024-05-09T09:10:32.864Z,102839.47
2024-05-09T09:12:43.890Z,102844.41
2024-05-09T09:14:48.766Z,102834.56
2024-05-09T09:16:56.583Z,102837.78
2024-05-09T09:18:58.462Z,102839.13
2024-05-09T09:21:00.389Z,102835.53
2024-05-09T09:23:07.878Z,102836.31
2024-05-09T09:25:12.212Z,102837.78
2024-05-09T09:27:14.481Z,102834.97
2024-05-09T09:29:21.162Z,102839.44
2024-05-09T09:31:40.413Z,102843.94
2024-05-09T09:33:45.105Z,102838.56
2024-05-09T09:35:47.082Z,102837.38
2024-05-09T09:37:53.931Z,102840.53
2024-05-09T09:39:59.173Z,102834.97
2024-05-09T09:42:04.392Z,102841.66
2024-05-09T09:44:09.101Z,102834.31
2024-05-09T09:46:12.923Z,102848.00
2024-05-09T09:48:22.745Z,102843.44
2024-05-09T09:50:36.629Z,102842.50
2024-05-09T09:52:39.069Z,102846.06
2024-05-09T09:54:44.043Z,102846.94
2024-05-09T09:56:48.573Z,102837.25
2024-05-09T09:58:53.023Z,102837.16
2024-05-09T10:00:55.070Z,102843.06
2024-05-09T10:03:06.795Z,102837.56
2024-05-09T10:05:17.575Z,102834.72
2024-05-09T10:07:22.710Z,102825.91
2024-05-09T10:09:24.647Z,102830.34
2024-05-09T10:11:31.600Z,102826.63
2024-05-09T10:13:34.840Z,102826.34
2024-05-09T10:15:52.820Z,102823.31
2024-05-09T10:18:06.337Z,102825.06
2024-05-09T10:20:14.888Z,102819.94
2024-05-09T10:22:33.716Z,102811.78
2024-05-09T10:24:55.371Z,102815.66
2024-05-09T10:27:06.032Z,102815.09
2024-05-09T10:29:14.609Z,102806.50
2024-05-09T10:31:16.472Z,102812.72
2024-05-09T10:33:24.257Z,102807.81
2024-05-09T10:35:26.815Z,102807.09
2024-05-09T10:37:35.595Z,102805.44
2024-05-09T10:39:38.675Z,102803.44
2024-05-09T10:41:40.591Z,102806.81
2024-05-09T10:43:42.671Z,102800.19
2024-05-09T10:45:49.254Z,102791.09
2024-05-09T10:47:51.367Z,102789.06
2024-05-09T10:49:55.450Z,102782.19
2024-05-09T10:52:00.873Z,102780.41
2024-05-09T10:56:30.332Z,102784.38
2024-05-09T10:58:35.216Z,102782.47
2024-05-09T11:00:37.684Z,102775.22
2024-05-09T11:02:42.808Z,102772.56
2024-05-09T11:04:47.979Z,102771.31
2024-05-09T11:06:55.131Z,102770.94
2024-05-09T11:08:57.503Z,102768.81
2024-05-09T11:11:17.208Z,102777.44
2024-05-09T11:13:32.404Z,102763.50
2024-05-09T11:15:41.116Z,102759.06
2024-05-09T11:17:44.973Z,102762.00
2024-05-09T11:19:50.585Z,102757.53
2024-05-09T11:21:54.147Z,102759.25
2024-05-09T11:23:57.163Z,102756.72
2024-05-09T11:26:01.865Z,102751.50
2024-05-09T11:28:25.542Z,102743.28
2024-05-09T11:30:39.730Z,102748.41
2024-05-09T11:32:55.091Z,102747.50
2024-05-09T11:34:56.921Z,102743.38
2024-05-09T11:36:58.844Z,102749.50
2024-05-09T11:39:02.870Z,102740.19
2024-05-09T11:41:17.171Z,102737.47
2024-05-09T11:43:22.152Z,102738.50
2024-05-09T11:45:24.067Z,102734.97
2024-05-09T11:47:28.909Z,102737.94
2024-05-09T11:49:36.942Z,102735.50
2024-05-09T11:51:38.828Z,102740.47
2024-05-09T11:53:43.217Z,102730.34
2024-05-09T11:55:45.001Z,102731.47
2024-05-09T11:57:49.867Z,102727.59
2024-05-09T11:59:51.679Z,102715.94
2024-05-09T12:01:55.221Z,102719.88
2024-05-09T12:03:57.258Z,102711.03
2024-05-09T12:05:59.405Z,102712.44
2024-05-09T12:08:04.921Z,102714.84
2024-05-09T12:10:11.914Z,102717.19
2024-05-09T12:12:20.409Z,102711.72
2024-05-09T12:14:28.004Z,102712.31
2024-05-09T12:16:29.954Z,102714.66
2024-05-09T12:18:40.731Z,102703.69
2024-05-09T12:20:43.031Z,102698.59
2024-05-09T12:22:44.760Z,102706.19
2024-05-09T12:24:46.589Z,102709.47
2024-05-09T12:26:48.462Z,102700.88
2024-05-09T12:28:50.252Z,102693.41
2024-05-09T12:30:54.726Z,102697.56
2024-05-09T12:32:56.635Z,102697.97
2024-05-09T12:34:58.500Z,102695.31
2024-05-09T12:37:00.293Z,102696.69
2024-05-09T12:39:02.788Z,102693.72
2024-05-09T12:41:04.970Z,102696.47
2024-05-09T12:43:07.423Z,102683.41
2024-05-09T12:45:10.103Z,102678.41
2024-05-09T12:47:14.734Z,102676.75
2024-05-09T12:49:18.871Z,102671.25
2024-05-09T12:51:21.399Z,102675.50
2024-05-09T12:53:23.266Z,102672.63
2024-05-09T12:55:25.146Z,102673.22
2024-05-09T12:57:29.021Z,102664.53
2024-05-09T12:59:30.894Z,102661.81
2024-05-09T13:01:32.820Z,102661.25
2024-05-09T13:03:37.420Z,102656.72
2024-05-09T13:05:41.393Z,102652.34
2024-05-09T13:07:43.551Z,102658.75
2024-05-09T13:09:45.494Z,102659.41
2024-05-09T13:11:47.379Z,102652.28
2024-05-09T13:13:49.169Z,102657.75
2024-05-09T13:15:51.151Z,102655.59
2024-05-09T13:17:53.082Z,102661.16
2024-05-09T13:19:57.510Z,102657.50
2024-05-09T13:21:59.401Z,102652.63
2024-05-09T13:24:01.200Z,102662.19
2024-05-09T13:26:02.963Z,102651.78
2024-05-09T13:28:05.584Z,102653.28
2024-05-09T13:30:11.886Z,102649.31
2024-05-09T13:32:16.544Z,102647.91
2024-05-09T13:34:18.482Z,102643.28
2024-05-09T13:36:24.345Z,102650.19
2024-05-09T13:38:26.211Z,102637.75
2024-05-09T13:40:34.365Z,102646.72
2024-05-09T13:42:38.094Z,102629.88
2024-05-09T13:44:39.890Z,102638.41
2024-05-09T13:46:41.761Z,102634.09
2024-05-09T13:48:43.692Z,102632.28
2024-05-09T13:50:45.606Z,102631.28
2024-05-09T13:52:50.073Z,102628.53
2024-05-09T13:54:52.018Z,102629.63
2024-05-09T13:56:53.896Z,102626.56
2024-05-09T13:58:55.794Z,102620.63
2024-05-09T14:01:00.538Z,102613.31
2024-05-09T14:03:02.557Z,102619.09
2024-05-09T14:05:04.995Z,102611.13
2024-05-09T14:07:07.591Z,102601.66
2024-05-09T14:09:12.178Z,102601.28
2024-05-09T14:11:14.042Z,102600.88
2024-05-09T14:13:16.156Z,102602.69
2024-05-09T14:15:18.307Z,102593.56
2024-05-09T14:17:20.254Z,102598.31
2024-05-09T14:19:22.153Z,102600.13
2024-05-09T14:21:23.939Z,102597.13
2024-05-09T14:23:25.916Z,102599.56
2024-05-09T14:25:35.096Z,102592.97
2024-05-09T14:27:42.658Z,102592.13
2024-05-09T14:29:44.455Z,102586.59
2024-05-09T14:31:46.468Z,102590.19
2024-05-09T14:33:48.390Z,102590.91
2024-05-09T14:35:50.286Z,102583.84
2024-05-09T14:37:52.182Z,102583.31
2024-05-09T14:39:54.175Z,102586.44
2024-05-09T14:41:58.580Z,102573.31
2024-05-09T14:44:02.774Z,102580.28
2024-05-09T14:46:04.980Z,102582.78
2024-05-09T14:48:08.099Z,102582.38
2024-05-09T14:50:16.797Z,102578.47
2024-05-09T14:52:24.983Z,102579.34
2024-05-09T14:54:26.752Z,102572.06
2024-05-09T14:56:28.586Z,102569.66
2024-05-09T14:58:33.034Z,102569.09
2024-05-09T15:00:40.116Z,102572.84
2024-05-09T15:02:44.002Z,102573.56
2024-05-09T15:04:45.934Z,102564.66
2024-05-09T15:06:48.775Z,102569.81
2024-05-09T15:08:55.336Z,102562.41
2024-05-09T15:10:57.401Z,102562.19
2024-05-09T15:12:59.354Z,102560.38
2024-05-09T15:15:04.671Z,102554.06
2024-05-09T15:17:09.650Z,102559.28
2024-05-09T15:19:11.772Z,102557.47
2024-05-09T15:21:13.744Z,102551.00
2024-05-09T15:23:15.559Z,102546.16
2024-05-09T15:25:17.417Z,102544.47
2024-05-09T15:27:19.737Z,102551.78
2024-05-09T15:29:21.720Z,102541.97
2024-05-09T15:31:26.234Z,102538.91
2024-05-09T15:33:28.170Z,102537.97
2024-05-09T15:35:30.015Z,102541.00
2024-05-09T15:37:32.038Z,102536.66
2024-05-09T15:39:36.871Z,102545.13
2024-05-09T15:41:38.723Z,102531.81
2024-05-09T15:43:40.561Z,102528.56
2024-05-09T15:45:42.476Z,102530.22
2024-05-09T15:47:47.073Z,102539.94
2024-05-09T15:49:50.693Z,102538.19
2024-05-09T15:51:52.583Z,102536.84
2024-05-09T15:53:54.335Z,102534.06
2024-05-09T15:55:59.071Z,102537.56
2024-05-09T15:58:01.759Z,102532.25
2024-05-09T16:00:05.942Z,102532.03
2024-05-09T16:04:15.766Z,102525.81
2024-05-09T16:06:17.629Z,102521.75
2024-05-09T16:08:19.442Z,102524.69
2024-05-09T16:10:25.935Z,102535.00
2024-05-09T16:12:33.362Z,102524.88
2024-05-09T16:14:35.163Z,102528.63
2024-05-09T16:16:37.063Z,102522.31
2024-05-09T16:18:38.965Z,102524.03
2024-05-09T16:20:44.951Z,102517.53
2024-05-09T16:22:48.390Z,102516.19
2024-05-09T16:24:50.216Z,102515.16
2024-05-09T16:26:52.149Z,102514.03
2024-05-09T16:28:53.909Z,102509.44
2024-05-09T16:30:57.142Z,102506.78
2024-05-09T16:32:59.069Z,102511.66
2024-05-09T16:35:00.899Z,102512.97
2024-05-09T16:37:10.305Z,102508.03
2024-05-09T16:39:12.172Z,102513.56
2024-05-09T16:41:15.549Z,102514.50
2024-05-09T16:43:17.620Z,102520.09
2024-05-09T16:45:19.617Z,102515.16
2024-05-09T16:47:21.504Z,102522.47
2024-05-09T16:49:23.962Z,102522.72
2024-05-09T16:51:26.268Z,102524.16
2024-05-09T16:53:30.623Z,102521.09
2024-05-09T16:55:35.762Z,102529.38
2024-05-09T16:57:38.325Z,102527.75
2024-05-09T16:59:40.171Z,102525.31
2024-05-09T17:01:41.989Z,102528.16
2024-05-09T17:03:44.129Z,102524.94
2024-05-09T17:05:49.120Z,102531.50
2024-05-09T17:07:51.032Z,102524.78
2024-05-09T17:09:55.430Z,102520.44
2024-05-09T17:11:57.193Z,102523.09
2024-05-09T17:13:58.982Z,102526.53
2024-05-09T17:16:00.825Z,102522.03
2024-05-09T17:18:03.329Z,102522.69
2024-05-09T17:20:08.595Z,102525.28
2024-05-09T17:22:14.988Z,102532.59
2024-05-09T17:24:17.944Z,102532.72
2024-05-09T17:26:22.582Z,102530.16
2024-05-09T17:28:26.571Z,102528.50
2024-05-09T17:30:32.703Z,102526.19
2024-05-09T17:32:38.061Z,102529.00
2024-05-09T17:34:39.948Z,102523.00
2024-05-09T17:36:41.964Z,102524.06
2024-05-09T17:38:43.730Z,102523.53
2024-05-09T17:40:45.605Z,102521.22
2024-05-09T17:42:49.989Z,102529.97
2024-05-09T17:44:52.056Z,102520.25
2024-05-09T17:46:53.961Z,102531.44
2024-05-09T17:48:57.369Z,102520.25
2024-05-09T17:51:00.674Z,102525.66
2024-05-09T17:53:02.672Z,102523.38
2024-05-09T17:55:05.310Z,102527.28
2024-05-09T17:57:08.099Z,102525.16
2024-05-09T17:59:12.870Z,102526.41
2024-05-09T18:01:14.763Z,102527.66
2024-05-09T18:03:16.706Z,102528.81
2024-05-09T18:05:18.674Z,102527.28
2024-05-09T18:07:20.578Z,102524.84
2024-05-09T18:09:22.382Z,102530.31
2024-05-09T18:11:25.095Z,102525.88
2024-05-09T18:13:27.057Z,102528.56
2024-05-09T18:15:31.640Z,102529.59
2024-05-09T18:17:34.320Z,102526.28
2024-05-09T18:19:36.364Z,102527.31
2024-05-09T18:21:38.271Z,102533.94
2024-05-09T18:23:40.083Z,102527.25
2024-05-09T18:25:41.864Z,102523.25
2024-05-09T18:27:46.533Z,102528.78
2024-05-09T18:29:48.320Z,102527.16
2024-05-09T18:31:52.738Z,102527.28
2024-05-09T18:33:54.990Z,102532.56
2024-05-09T18:35:56.985Z,102531.09
2024-05-09T18:37:58.978Z,102530.53
2024-05-09T18:40:00.840Z,102522.97
2024-05-09T18:42:02.745Z,102525.03
2024-05-09T18:44:04.671Z,102527.00
2024-05-09T18:46:06.863Z,102531.56
2024-05-09T18:48:12.241Z,102530.72
2024-05-09T18:50:20.749Z,102529.03
2024-05-09T18:52:30.479Z,102536.25
2024-05-09T18:54:32.323Z,102538.97
2024-05-09T18:56:35.027Z,102539.13
2024-05-09T18:58:36.876Z,102536.50
2024-05-09T19:00:41.422Z,102530.41
2024-05-09T19:02:46.142Z,102543.50
2024-05-09T19:04:51.216Z,102544.31
2024-05-09T19:06:53.379Z,102541.72
2024-05-09T19:08:55.602Z,102544.31
2024-05-09T19:10:58.382Z,102543.41
2024-05-09T19:13:00.296Z,102545.22
2024-05-09T19:15:02.398Z,102547.13
2024-05-09T19:17:04.704Z,102548.97
2024-05-09T19:19:06.887Z,102537.72
2024-05-09T19:21:11.670Z,102550.09
2024-05-09T19:23:13.610Z,102547.47
2024-05-09T19:25:15.490Z,102548.63
2024-05-09T19:27:17.350Z,102554.81
2024-05-09T19:29:19.133Z,102552.22
2024-05-09T19:31:21.074Z,102552.22
2024-05-09T19:33:22.928Z,102557.44
2024-05-09T19:35:24.822Z,102557.44
2024-05-09T19:37:29.627Z,102559.22
2024-05-09T19:39:34.290Z,102559.38
2024-05-09T19:41:36.078Z,102558.59
2024-05-09T19:43:37.880Z,102565.66
2024-05-09T19:45:39.868Z,102569.22
2024-05-09T19:47:42.305Z,102564.00
2024-05-09T19:49:44.241Z,102569.47
2024-05-09T19:51:46.044Z,102555.59
2024-05-09T19:53:50.787Z,102560.03
2024-05-09T19:55:52.634Z,102566.19
2024-05-09T19:57:54.458Z,102563.56
2024-05-09T19:59:56.264Z,102566.34
2024-05-09T20:01:58.169Z,102575.13
2024-05-09T20:04:00.419Z,102576.09
2024-05-09T20:06:02.829Z,102581.47
2024-05-09T20:08:06.073Z,102589.44
2024-05-09T20:10:20.144Z,102584.38
2024-05-09T20:12:25.313Z,102580.13
2024-05-09T20:14:27.015Z,102576.78
2024-05-09T20:16:28.836Z,102573.38
2024-05-09T20:18:30.730Z,102573.50
2024-05-09T20:20:38.210Z,102574.50
2024-05-09T20:22:44.931Z,102587.81
2024-05-09T20:24:46.692Z,102584.38
2024-05-09T20:26:51.122Z,102586.25
2024-05-09T20:28:52.927Z,102587.31
2024-05-09T20:30:54.731Z,102579.50
2024-05-09T20:32:56.729Z,102584.88
2024-05-09T20:34:58.547Z,102584.09
2024-05-09T20:37:00.410Z,102589.44
2024-05-09T20:39:02.465Z,102589.56
2024-05-09T20:41:04.565Z,102581.75
2024-05-09T20:43:11.981Z,102582.69
2024-05-09T20:45:14.097Z,102588.88
2024-05-09T20:47:15.892Z,102586.34
2024-05-09T20:49:17.976Z,102589.06
2024-05-09T20:51:19.954Z,102584.75
2024-05-09T20:53:21.765Z,102582.16
2024-05-09T20:55:23.587Z,102576.13
2024-05-09T20:57:25.410Z,102580.59
2024-05-09T20:59:29.800Z,102583.25
2024-05-09T21:01:31.645Z,102578.09
2024-05-09T21:03:35.767Z,102579.88
2024-05-09T21:05:37.811Z,102573.84
2024-05-09T21:07:39.839Z,102569.53
2024-05-09T21:09:41.719Z,102577.50
2024-05-09T21:11:43.592Z,102573.16
2024-05-09T21:13:45.350Z,102578.50
2024-05-09T21:15:49.748Z,102570.66
2024-05-09T21:17:51.683Z,102571.56
2024-05-09T21:19:53.669Z,102567.19
2024-05-09T21:21:55.407Z,102561.97
2024-05-09T21:23:57.160Z,102573.34
2024-05-09T21:25:58.934Z,102569.91
2024-05-09T21:28:01.166Z,102569.94
2024-05-09T21:30:04.483Z,102568.16
2024-05-09T21:32:10.592Z,102569.06
2024-05-09T21:34:12.534Z,102565.53
2024-05-09T21:36:14.417Z,102569.13
2024-05-09T21:38:16.402Z,102564.75
2024-05-09T21:40:27.019Z,102564.81
2024-05-09T21:42:35.330Z,102566.53
2024-05-09T21:44:37.166Z,102565.66
2024-05-09T21:46:39.015Z,102552.56
2024-05-09T21:48:43.584Z,102556.13
2024-05-09T21:50:45.384Z,102558.75
2024-05-09T21:52:47.202Z,102566.69
2024-05-09T21:54:48.980Z,102558.88
2024-05-09T21:56:50.749Z,102560.75
2024-05-09T21:58:52.547Z,102559.09
2024-05-09T22:00:54.359Z,102554.84
2024-05-09T22:02:56.263Z,102553.19
2024-05-09T22:05:01.218Z,102546.28
2024-05-09T22:07:04.748Z,102532.34
2024-05-09T22:09:06.597Z,102535.91
2024-05-09T22:11:08.712Z,102532.44
2024-05-09T22:13:10.660Z,102531.66
2024-05-09T22:15:12.606Z,102532.59
2024-05-09T22:17:14.438Z,102538.69
2024-05-09T22:19:16.271Z,102532.66
2024-05-09T22:21:20.665Z,102529.22
2024-05-09T22:23:22.407Z,102531.00
2024-05-09T22:25:26.047Z,102536.25
2024-05-09T22:27:29.032Z,102536.25
2024-05-09T22:29:30.782Z,102537.97
2024-05-09T22:31:32.577Z,102537.09
2024-05-09T22:33:34.645Z,102532.72
2024-05-09T22:35:36.562Z,102527.47
2024-05-09T22:37:40.925Z,102520.44
2024-05-09T22:39:42.666Z,102525.72
2024-05-09T22:41:45.533Z,102530.09
2024-05-09T22:43:47.303Z,102525.75
2024-05-09T22:45:49.074Z,102526.66
2024-05-09T22:47:51.047Z,102524.06
2024-05-09T22:49:52.967Z,102528.50
2024-05-09T22:51:54.776Z,102525.06
2024-05-09T22:53:59.280Z,102526.84
2024-05-09T22:56:01.048Z,102526.84
2024-05-09T22:58:02.837Z,102525.06
2024-05-09T23:00:07.925Z,102530.31
2024-05-09T23:02:11.661Z,102533.84
2024-05-09T23:04:13.607Z,102533.88
2024-05-09T23:06:15.503Z,102537.41
2024-05-09T23:08:17.260Z,102528.72
2024-05-09T23:10:28.330Z,102526.09
2024-05-09T23:12:36.509Z,102527.00
2024-05-09T23:14:38.289Z,102527.88
2024-05-09T23:16:40.035Z,102520.91
2024-05-09T23:18:41.942Z,102537.63
2024-05-09T23:20:43.823Z,102538.56
2024-05-09T23:22:46.310Z,102535.13
2024-05-09T23:24:48.231Z,102536.03
2024-05-09T23:26:52.689Z,102530.84
2024-05-09T23:28:54.439Z,102543.09
2024-05-09T23:30:56.258Z,102530.00
2024-05-09T23:32:58.166Z,102530.00
2024-05-09T23:35:00.265Z,102531.75
2024-05-09T23:37:02.333Z,102532.66
2024-05-09T23:39:05.193Z,102526.56